createdAt,value
2018-12-24T00:00:34.154Z,6.70
2018-12-24T00:03:22.233Z,7.40
2018-12-24T00:05:57.882Z,8.57
2018-12-24T00:08:30.802Z,7.43
2018-12-24T00:11:08.438Z,8.13
2018-12-24T00:13:43.178Z,7.60
2018-12-24T00:16:16.471Z,7.40
2018-12-24T00:18:50.409Z,7.47
2018-12-24T00:21:23.142Z,7.83
2018-12-24T00:24:00.767Z,8.27
2018-12-24T00:26:32.541Z,9.63
2018-12-24T00:29:07.577Z,8.30
2018-12-24T00:31:42.122Z,8.73
2018-12-24T00:34:15.400Z,8.67
2018-12-24T00:36:53.212Z,9.37
2018-12-24T00:39:26.272Z,6.40
2018-12-24T00:42:01.491Z,8.53
2018-12-24T00:44:40.032Z,11.73
2018-12-24T00:47:15.479Z,10.23
2018-12-24T00:49:48.573Z,10.23
2018-12-24T00:52:26.079Z,9.73
2018-12-24T00:55:00.995Z,12.33
2018-12-24T00:57:36.356Z,10.37
2018-12-24T01:00:08.900Z,10.40
2018-12-24T01:02:41.164Z,11.80
2018-12-24T01:05:13.690Z,12.17
2018-12-24T01:07:49.867Z,12.97
2018-12-24T01:10:27.851Z,11.83
2018-12-24T01:13:04.597Z,13.03
2018-12-24T01:15:44.652Z,13.27
2018-12-24T01:18:16.557Z,13.10
2018-12-24T01:20:50.986Z,12.17
2018-12-24T01:23:28.547Z,13.30
2018-12-24T01:26:00.703Z,18.23
2018-12-24T01:28:38.029Z,16.37
2018-12-24T01:31:15.193Z,17.00
2018-12-24T01:33:48.010Z,14.33
2018-12-24T01:36:20.502Z,14.37
2018-12-24T01:38:55.287Z,16.70
2018-12-24T01:41:30.350Z,11.93
2018-12-24T01:44:13.511Z,11.63
2018-12-24T01:46:48.114Z,13.40
2018-12-24T01:49:24.667Z,12.67
2018-12-24T01:51:59.194Z,10.93
2018-12-24T01:54:32.367Z,9.70
2018-12-24T01:57:03.938Z,9.33
2018-12-24T01:59:38.830Z,10.53
2018-12-24T02:02:13.075Z,9.23
2018-12-24T02:04:54.974Z,12.83
2018-12-24T02:07:31.461Z,12.00
2018-12-24T02:10:10.187Z,10.03
2018-12-24T02:12:44.302Z,9.13
2018-12-24T02:15:21.700Z,9.43
2018-12-24T02:18:00.203Z,8.20
2018-12-24T02:20:40.524Z,10.63
2018-12-24T02:23:15.092Z,10.70
2018-12-24T02:25:49.964Z,9.23
2018-12-24T02:28:26.558Z,9.57
2018-12-24T02:30:58.532Z,9.97
2018-12-24T02:33:34.914Z,9.90
2018-12-24T02:36:11.715Z,10.37
2018-12-24T02:38:47.113Z,7.87
2018-12-24T02:41:24.528Z,9.73
2018-12-24T02:44:06.142Z,9.77
2018-12-24T02:46:41.850Z,9.03
2018-12-24T02:49:15.686Z,9.87
2018-12-24T02:51:46.860Z,10.03
2018-12-24T02:57:21.402Z,12.47
2018-12-24T02:59:52.552Z,12.80
2018-12-24T03:02:26.046Z,11.00
2018-12-24T03:05:00.275Z,10.83
2018-12-24T03:07:32.430Z,15.43
2018-12-24T03:10:12.279Z,11.37
2018-12-24T03:12:48.090Z,10.03
2018-12-24T03:15:23.755Z,10.07
2018-12-24T03:17:59.130Z,10.53
2018-12-24T03:20:33.520Z,11.17
2018-12-24T03:23:08.661Z,9.60
2018-12-24T03:25:41.869Z,15.13
2018-12-24T03:28:22.560Z,12.17
2018-12-24T03:31:04.598Z,12.13
2018-12-24T03:33:39.185Z,11.13
2018-12-24T03:36:18.124Z,11.03
2018-12-24T03:38:52.088Z,14.53
2018-12-24T03:41:26.384Z,10.23
2018-12-24T03:44:00.972Z,10.63
2018-12-24T03:46:33.126Z,11.33
2018-12-24T03:49:11.465Z,10.07
2018-12-24T03:51:54.492Z,11.03
2018-12-24T03:54:30.983Z,10.93
2018-12-24T03:57:02.614Z,10.50
2018-12-24T03:59:36.800Z,10.77
2018-12-24T04:02:12.230Z,13.87
2018-12-24T04:04:44.808Z,10.33
2018-12-24T04:07:20.280Z,10.83
2018-12-24T04:09:53.271Z,11.93
2018-12-24T04:12:27.400Z,11.77
2018-12-24T04:15:01.031Z,11.17
2018-12-24T04:17:32.547Z,11.53
2018-12-24T04:20:07.274Z,9.30
2018-12-24T04:22:41.924Z,9.37
2018-12-24T04:25:15.318Z,9.67
2018-12-24T04:27:48.383Z,9.83
2018-12-24T04:30:23.228Z,10.70
2018-12-24T04:32:56.251Z,9.50
2018-12-24T04:35:32.152Z,10.73
2018-12-24T04:38:16.198Z,11.80
2018-12-24T04:40:48.083Z,10.60
2018-12-24T04:44:23.348Z,9.67
2018-12-24T04:46:54.860Z,9.33
2018-12-24T04:49:28.882Z,9.30
2018-12-24T04:52:02.902Z,8.70
2018-12-24T04:54:46.968Z,10.23
2018-12-24T04:57:26.045Z,8.17
2018-12-24T04:59:57.661Z,9.47
2018-12-24T05:02:29.936Z,9.77
2018-12-24T05:05:01.949Z,10.13
2018-12-24T05:07:35.588Z,8.50
2018-12-24T05:10:10.643Z,9.37
2018-12-24T05:12:53.119Z,12.73
2018-12-24T05:15:28.724Z,9.67
2018-12-24T05:18:02.188Z,10.50
2018-12-24T05:20:34.377Z,9.43
2018-12-24T05:23:06.994Z,10.57
2018-12-24T05:25:38.697Z,10.43
2018-12-24T05:28:11.128Z,9.63
2018-12-24T05:30:41.543Z,11.40
2018-12-24T05:33:18.166Z,12.43
2018-12-24T05:35:52.897Z,14.13
2018-12-24T05:38:24.516Z,12.90
2018-12-24T05:40:57.120Z,12.80
2018-12-24T05:43:28.962Z,13.20
2018-12-24T05:46:02.182Z,11.57
2018-12-24T05:48:34.256Z,12.20
2018-12-24T05:51:06.800Z,12.30
2018-12-24T05:53:38.304Z,16.60
2018-12-24T05:56:13.589Z,13.20
2018-12-24T05:58:47.504Z,12.23
2018-12-24T06:01:21.515Z,16.20
2018-12-24T06:03:52.904Z,20.43
2018-12-24T06:06:25.932Z,16.63
2018-12-24T06:08:59.747Z,16.90
2018-12-24T06:11:34.406Z,14.57
2018-12-24T06:14:09.304Z,15.30
2018-12-24T06:16:48.974Z,13.33
2018-12-24T06:19:20.949Z,13.53
2018-12-24T06:21:54.437Z,13.50
2018-12-24T06:24:29.083Z,13.07
2018-12-24T06:27:01.031Z,14.27
2018-12-24T06:29:35.117Z,15.47
2018-12-24T06:32:12.751Z,13.73
2018-12-24T06:34:59.714Z,16.07
2018-12-24T06:38:02.317Z,14.23
2018-12-24T06:40:36.024Z,14.73
2018-12-24T06:43:09.107Z,17.00
2018-12-24T06:45:41.995Z,13.37
2018-12-24T06:48:14.779Z,18.67
2018-12-24T06:50:46.650Z,14.67
2018-12-24T06:53:18.147Z,14.47
2018-12-24T06:55:49.039Z,13.60
2018-12-24T06:58:20.636Z,13.87
2018-12-24T07:00:51.637Z,13.37
2018-12-24T07:03:25.511Z,15.90
2018-12-24T07:05:58.845Z,19.27
2018-12-24T07:08:33.518Z,16.53
2018-12-24T07:11:10.725Z,17.50
2018-12-24T07:13:41.804Z,16.40
2018-12-24T07:16:13.222Z,17.70
2018-12-24T07:18:44.994Z,15.73
2018-12-24T07:21:17.129Z,18.40
2018-12-24T07:23:52.342Z,16.87
2018-12-24T07:26:26.123Z,16.60
2018-12-24T07:28:59.208Z,22.27
2018-12-24T07:31:31.633Z,24.03
2018-12-24T07:34:03.795Z,17.33
2018-12-24T07:36:36.066Z,20.93
2018-12-24T07:39:09.452Z,19.20
2018-12-24T07:41:42.783Z,19.20
2018-12-24T07:44:14.010Z,20.20
2018-12-24T07:46:56.422Z,22.87
2018-12-24T07:49:28.691Z,21.30
2018-12-24T07:52:02.602Z,21.00
2018-12-24T07:54:35.704Z,24.57
2018-12-24T07:57:07.350Z,18.47
2018-12-24T07:59:40.852Z,23.80
2018-12-24T08:02:13.224Z,17.97
2018-12-24T08:04:43.822Z,22.23
2018-12-24T08:07:17.019Z,21.73
2018-12-24T08:09:54.297Z,15.33
2018-12-24T08:12:26.776Z,14.63
2018-12-24T08:14:59.908Z,15.00
2018-12-24T08:17:35.236Z,15.90
2018-12-24T08:20:07.724Z,13.73
2018-12-24T08:22:40.273Z,17.43
2018-12-24T08:25:11.151Z,18.63
2018-12-24T08:27:41.965Z,18.53
2018-12-24T08:30:17.716Z,14.30
2018-12-24T08:32:50.398Z,14.70
2018-12-24T08:35:22.367Z,13.90
2018-12-24T08:37:57.601Z,16.40
2018-12-24T08:40:30.826Z,14.30
2018-12-24T08:43:04.745Z,15.30
2018-12-24T08:45:36.796Z,12.50
2018-12-24T08:48:11.507Z,13.67
2018-12-24T08:50:45.126Z,16.57
2018-12-24T08:53:17.360Z,18.17
2018-12-24T08:55:47.713Z,13.70
2018-12-24T08:58:19.161Z,11.93
2018-12-24T09:00:52.371Z,16.13
2018-12-24T09:03:28.349Z,17.87
2018-12-24T09:06:00.095Z,17.27
2018-12-24T09:08:32.455Z,11.60
2018-12-24T09:11:04.462Z,11.20
2018-12-24T09:13:37.336Z,14.17
2018-12-24T09:16:11.836Z,14.00
2018-12-24T09:18:46.451Z,12.13
2018-12-24T09:21:18.713Z,11.23
2018-12-24T09:24:03.387Z,11.47
2018-12-24T09:26:34.017Z,13.67
2018-12-24T09:29:05.397Z,11.83
2018-12-24T09:31:37.459Z,14.03
2018-12-24T09:34:16.157Z,10.13
2018-12-24T09:36:57.641Z,11.40
2018-12-24T09:39:31.494Z,11.17
2018-12-24T09:42:03.953Z,11.00
2018-12-24T09:44:40.420Z,10.00
2018-12-24T09:47:10.929Z,12.20
2018-12-24T09:49:45.818Z,11.90
2018-12-24T09:52:18.852Z,9.33
2018-12-24T09:54:51.944Z,9.13
2018-12-24T09:57:22.987Z,9.43
2018-12-24T09:59:54.891Z,10.00
2018-12-24T10:02:37.704Z,8.57
2018-12-24T10:05:11.868Z,9.63
2018-12-24T10:07:42.559Z,7.23
2018-12-24T10:10:19.593Z,6.70
2018-12-24T10:12:50.942Z,5.93
2018-12-24T10:15:22.121Z,8.10
2018-12-24T10:17:58.699Z,5.43
2018-12-24T10:20:31.993Z,9.27
2018-12-24T10:23:05.706Z,7.20
2018-12-24T10:25:43.479Z,6.90
2018-12-24T10:28:15.843Z,8.63
2018-12-24T10:30:47.827Z,6.57
2018-12-24T10:33:18.639Z,6.13
2018-12-24T10:35:51.175Z,8.33
2018-12-24T10:38:21.892Z,11.83
2018-12-24T10:41:05.983Z,9.40
2018-12-24T10:43:39.661Z,7.47
2018-12-24T10:46:17.693Z,8.57
2018-12-24T10:48:53.008Z,5.60
2018-12-24T10:51:25.457Z,3.80
2018-12-24T10:53:58.913Z,5.93
2018-12-24T10:56:32.865Z,4.43
2018-12-24T10:59:09.531Z,4.47
2018-12-24T11:01:42.099Z,4.80
2018-12-24T11:04:18.000Z,5.43
2018-12-24T11:06:49.503Z,5.83
2018-12-24T11:09:22.046Z,4.50
2018-12-24T11:11:56.103Z,3.47
2018-12-24T11:14:28.085Z,3.40
2018-12-24T11:17:06.420Z,4.23
2018-12-24T11:19:38.499Z,4.83
2018-12-24T11:22:09.952Z,4.33
2018-12-24T11:24:44.402Z,2.87
2018-12-24T11:27:16.542Z,3.30
2018-12-24T11:29:51.146Z,3.37
2018-12-24T11:32:24.355Z,5.17
2018-12-24T11:34:58.399Z,5.40
2018-12-24T11:37:37.331Z,3.57
2018-12-24T11:40:08.551Z,3.60
2018-12-24T11:42:45.693Z,4.10
2018-12-24T11:45:22.391Z,5.50
2018-12-24T11:47:59.631Z,3.20
2018-12-24T11:50:31.609Z,3.87
2018-12-24T11:53:04.263Z,3.77
2018-12-24T11:55:35.535Z,4.37
2018-12-24T11:58:13.466Z,4.13
2018-12-24T12:00:40.416Z,6.10
2018-12-24T12:03:15.559Z,5.13
2018-12-24T12:05:48.460Z,3.53
2018-12-24T12:08:24.808Z,6.20
2018-12-24T12:10:58.091Z,3.67
2018-12-24T12:13:36.009Z,5.33
2018-12-24T12:16:11.450Z,5.60
2018-12-24T12:18:45.511Z,6.77
2018-12-24T12:21:17.222Z,4.03
2018-12-24T12:23:51.454Z,4.87
2018-12-24T12:26:24.195Z,3.13
2018-12-24T12:29:01.281Z,4.00
2018-12-24T12:31:33.383Z,2.83
2018-12-24T12:34:06.264Z,4.17
2018-12-24T12:36:38.251Z,3.10
2018-12-24T12:39:17.514Z,2.83
2018-12-24T12:41:51.550Z,4.93
2018-12-24T12:44:23.156Z,3.63
2018-12-24T12:46:55.224Z,3.97
2018-12-24T12:49:29.120Z,2.97
2018-12-24T12:52:02.974Z,5.27
2018-12-24T12:54:35.978Z,3.17
2018-12-24T12:57:27.012Z,3.60
2018-12-24T13:00:01.116Z,4.10
2018-12-24T13:02:38.652Z,3.20
2018-12-24T13:05:18.194Z,7.70
2018-12-24T13:07:59.069Z,3.83
2018-12-24T13:10:35.587Z,4.07
2018-12-24T13:13:13.394Z,3.10
2018-12-24T13:15:59.550Z,3.87
2018-12-24T13:18:28.434Z,3.73
2018-12-24T13:21:16.596Z,4.17
2018-12-24T13:24:15.587Z,7.23
2018-12-24T13:26:52.588Z,5.37
2018-12-24T13:29:29.857Z,5.07
2018-12-24T13:32:37.724Z,3.73
2018-12-24T13:35:29.332Z,3.63
2018-12-24T13:38:03.951Z,9.07
2018-12-24T13:40:36.537Z,6.73
2018-12-24T13:43:11.977Z,3.90
2018-12-24T13:45:47.792Z,4.67
2018-12-24T13:48:19.634Z,5.57
2018-12-24T13:50:52.643Z,5.73
2018-12-24T13:53:27.066Z,5.77
2018-12-24T13:55:59.479Z,6.30
2018-12-24T13:58:35.458Z,6.27
2018-12-24T14:01:06.571Z,6.37
2018-12-24T14:03:37.157Z,6.63
2018-12-24T14:06:12.868Z,5.60
2018-12-24T14:08:44.755Z,4.67
2018-12-24T14:11:26.071Z,5.90
2018-12-24T14:14:18.147Z,7.50
2018-12-24T14:16:50.729Z,5.33
2018-12-24T14:19:22.263Z,6.03
2018-12-24T14:21:55.130Z,4.57
2018-12-24T14:24:28.080Z,4.87
2018-12-24T14:27:01.757Z,5.97
2018-12-24T14:29:43.055Z,5.50
2018-12-24T14:32:15.924Z,5.63
2018-12-24T14:34:50.324Z,8.53
2018-12-24T14:37:25.263Z,5.30
2018-12-24T14:40:03.501Z,5.90
2018-12-24T14:42:38.279Z,4.70
2018-12-24T14:45:10.605Z,5.07
2018-12-24T14:47:44.893Z,5.43
2018-12-24T14:50:18.499Z,5.60
2018-12-24T14:52:53.722Z,5.10
2018-12-24T14:55:25.669Z,5.80
2018-12-24T14:57:59.789Z,6.77
2018-12-24T15:00:32.808Z,6.57
2018-12-24T15:03:04.874Z,6.23
2018-12-24T15:05:36.567Z,5.17
2018-12-24T15:08:09.831Z,5.07
2018-12-24T15:10:42.675Z,10.20
2018-12-24T15:13:13.484Z,8.57
2018-12-24T15:15:45.481Z,8.17
2018-12-24T15:18:16.988Z,5.37
2018-12-24T15:20:47.724Z,7.50
2018-12-24T15:23:18.854Z,7.53
2018-12-24T15:25:54.112Z,6.30
2018-12-24T15:28:26.276Z,6.97
2018-12-24T15:30:58.781Z,5.83
2018-12-24T15:33:30.225Z,6.57
2018-12-24T15:36:00.532Z,5.43
2018-12-24T15:38:32.728Z,6.10
2018-12-24T15:41:06.720Z,6.57
2018-12-24T15:43:37.657Z,8.67
2018-12-24T15:46:09.416Z,5.93
2018-12-24T15:48:41.087Z,8.37
2018-12-24T15:51:13.673Z,6.40
2018-12-24T15:53:46.619Z,7.33
2018-12-24T15:56:18.216Z,7.33
2018-12-24T15:58:53.355Z,5.03
2018-12-24T16:01:26.714Z,8.97
2018-12-24T16:04:03.489Z,6.80
2018-12-24T16:06:42.052Z,8.17
2018-12-24T16:09:13.883Z,6.53
2018-12-24T16:11:48.002Z,7.17
2018-12-24T16:14:18.979Z,7.27
2018-12-24T16:16:52.025Z,5.63
2018-12-24T16:19:24.027Z,8.93
2018-12-24T16:21:55.059Z,8.73
2018-12-24T16:24:25.785Z,7.07
2018-12-24T16:26:58.644Z,11.33
2018-12-24T16:29:30.309Z,9.00
2018-12-24T16:32:10.309Z,8.03
2018-12-24T16:34:41.453Z,8.87
2018-12-24T16:37:14.841Z,8.87
2018-12-24T16:39:46.092Z,6.90
2018-12-24T16:42:19.405Z,7.80
2018-12-24T16:44:57.797Z,6.77
2018-12-24T16:47:38.058Z,9.37
2018-12-24T16:50:11.995Z,9.67
2018-12-24T16:52:44.123Z,8.03
2018-12-24T16:55:15.382Z,8.10
2018-12-24T16:57:45.814Z,8.00
2018-12-24T17:00:19.331Z,10.67
2018-12-24T17:02:52.928Z,13.50
2018-12-24T17:05:25.878Z,10.30
2018-12-24T17:07:59.994Z,11.80
2018-12-24T17:10:31.403Z,12.80
2018-12-24T17:13:02.378Z,12.33
2018-12-24T17:15:34.761Z,10.63
2018-12-24T17:18:07.390Z,15.93
2018-12-24T17:20:38.516Z,13.57
2018-12-24T17:23:09.193Z,13.03
2018-12-24T17:25:40.831Z,11.57
2018-12-24T17:28:11.774Z,11.87
2018-12-24T17:30:44.545Z,13.07
2018-12-24T17:33:17.218Z,12.97
2018-12-24T17:35:48.401Z,10.80
2018-12-24T17:38:21.325Z,14.40
2018-12-24T17:40:56.612Z,13.40
2018-12-24T17:43:30.182Z,13.30
2018-12-24T17:46:01.084Z,11.23
2018-12-24T17:48:39.536Z,13.70
2018-12-24T17:51:13.553Z,16.03
2018-12-24T17:53:45.857Z,16.20
2018-12-24T17:56:19.485Z,13.63
2018-12-24T17:58:52.620Z,12.27
2018-12-24T18:01:26.446Z,14.33
2018-12-24T18:04:02.001Z,15.73
2018-12-24T18:06:37.423Z,12.80
2018-12-24T18:09:09.108Z,13.43
2018-12-24T18:11:42.583Z,11.37
2018-12-24T18:14:14.433Z,14.73
2018-12-24T18:16:49.584Z,12.53
2018-12-24T18:19:21.883Z,21.50
2018-12-24T18:21:53.222Z,18.53
2018-12-24T18:24:25.770Z,17.57
2018-12-24T18:26:57.908Z,13.73
2018-12-24T18:29:33.966Z,11.27
2018-12-24T18:32:08.703Z,11.93
2018-12-24T18:34:44.060Z,12.40
2018-12-24T18:37:15.493Z,11.97
2018-12-24T18:39:52.168Z,11.07
2018-12-24T18:42:28.876Z,12.40
2018-12-24T18:45:04.089Z,16.23
2018-12-24T18:47:35.776Z,11.30
2018-12-24T18:50:10.897Z,14.97
2018-12-24T18:52:42.170Z,12.60
2018-12-24T18:55:13.141Z,11.70
2018-12-24T18:57:44.184Z,13.97
2018-12-24T19:00:16.283Z,17.23
2018-12-24T19:02:47.529Z,13.33
2018-12-24T19:05:19.590Z,14.53
2018-12-24T19:07:52.700Z,15.50
2018-12-24T19:10:23.058Z,15.50
2018-12-24T19:12:54.510Z,16.63
2018-12-24T19:15:26.780Z,14.20
2018-12-24T19:17:58.729Z,14.00
2018-12-24T19:20:31.337Z,14.63
2018-12-24T19:23:02.047Z,15.07
2018-12-24T19:25:37.950Z,17.80
2018-12-24T19:28:13.669Z,16.83
2018-12-24T19:30:45.024Z,18.33
2018-12-24T19:33:16.931Z,14.43
2018-12-24T19:35:50.888Z,17.33
2018-12-24T19:38:22.903Z,15.73
2018-12-24T19:40:59.039Z,18.93
2018-12-24T19:43:31.776Z,18.97
2018-12-24T19:46:07.609Z,20.57
2018-12-24T19:48:39.901Z,20.60
2018-12-24T19:51:12.202Z,22.27
2018-12-24T19:53:43.411Z,26.80
2018-12-24T19:56:16.135Z,24.37
2018-12-24T19:58:51.447Z,25.03
2018-12-24T20:01:23.494Z,24.50
2018-12-24T20:03:55.965Z,26.17
2018-12-24T20:06:30.164Z,29.37
2018-12-24T20:09:05.094Z,31.67
2018-12-24T20:11:38.249Z,28.97
2018-12-24T20:14:10.690Z,24.10
2018-12-24T20:16:41.175Z,22.70
2018-12-24T20:19:12.797Z,24.20
2018-12-24T20:21:44.538Z,19.40
2018-12-24T20:24:15.945Z,18.97
2018-12-24T20:26:47.507Z,20.70
2018-12-24T20:29:18.315Z,20.70
2018-12-24T20:31:50.362Z,18.30
2018-12-24T20:34:21.962Z,15.60
2018-12-24T20:36:53.864Z,18.20
2018-12-24T20:39:29.452Z,19.07
2018-12-24T20:42:02.585Z,21.27
2018-12-24T20:44:34.693Z,19.37
2018-12-24T20:47:06.553Z,16.97
2018-12-24T20:49:38.209Z,20.40
2018-12-24T20:52:09.951Z,18.13
2018-12-24T20:54:43.451Z,20.47
2018-12-24T20:57:15.657Z,19.90
2018-12-24T20:59:48.731Z,15.97
2018-12-24T21:02:20.196Z,20.07
2018-12-24T21:04:58.296Z,19.30
2018-12-24T21:07:31.643Z,20.40
2018-12-24T21:10:04.370Z,22.07
2018-12-24T21:12:35.741Z,19.63
2018-12-24T21:15:06.534Z,20.73
2018-12-24T21:17:38.317Z,20.53
2018-12-24T21:20:11.500Z,19.13
2018-12-24T21:22:43.023Z,17.07
2018-12-24T21:25:15.870Z,21.43
2018-12-24T21:27:47.134Z,20.13
2018-12-24T21:30:29.009Z,18.03
2018-12-24T21:33:01.368Z,21.63
2018-12-24T21:35:34.619Z,20.37
2018-12-24T21:38:10.209Z,17.87
2018-12-24T21:40:49.200Z,18.73
2018-12-24T21:43:21.820Z,17.57
2018-12-24T21:45:52.381Z,17.70
2018-12-24T21:48:23.860Z,20.20
2018-12-24T21:50:57.509Z,21.77
2018-12-24T21:53:29.593Z,22.73
2018-12-24T21:56:00.848Z,23.43
2018-12-24T21:58:31.586Z,24.47
2018-12-24T22:01:05.909Z,21.77
2018-12-24T22:03:40.283Z,27.07
2018-12-24T22:06:12.797Z,24.00
2018-12-24T22:08:44.009Z,24.13
2018-12-24T22:11:17.765Z,28.50
2018-12-24T22:13:51.246Z,22.73
2018-12-24T22:16:24.399Z,26.70
2018-12-24T22:18:58.453Z,24.50
2018-12-24T22:21:37.381Z,25.77
2018-12-24T22:24:09.314Z,24.53
2018-12-24T22:26:42.656Z,27.13
2018-12-24T22:29:13.845Z,25.67
2018-12-24T22:31:44.435Z,27.57
2018-12-24T22:34:15.955Z,29.40
2018-12-24T22:36:47.207Z,26.67
2018-12-24T22:39:17.632Z,24.57
2018-12-24T22:41:50.187Z,26.13
2018-12-24T22:44:21.051Z,23.63
2018-12-24T22:46:56.233Z,32.90
2018-12-24T22:49:29.606Z,25.07
2018-12-24T22:52:02.551Z,29.03
2018-12-24T22:54:35.647Z,23.60
2018-12-24T22:57:07.635Z,28.80
2018-12-24T22:59:38.883Z,25.50
2018-12-24T23:02:10.643Z,30.13
2018-12-24T23:04:41.487Z,28.90
2018-12-24T23:07:13.977Z,25.63
2018-12-24T23:09:50.429Z,27.13
2018-12-24T23:12:24.236Z,25.43
2018-12-24T23:14:56.411Z,28.63
2018-12-24T23:17:34.964Z,24.80
2018-12-24T23:20:05.332Z,31.33
2018-12-24T23:22:38.417Z,28.90
2018-12-24T23:25:09.585Z,30.60
2018-12-24T23:27:41.054Z,24.03
2018-12-24T23:30:12.213Z,28.83
2018-12-24T23:32:42.505Z,24.57
2018-12-24T23:35:13.155Z,26.07
2018-12-24T23:37:44.120Z,27.23
2018-12-24T23:40:15.410Z,24.53
2018-12-24T23:42:46.184Z,28.90
2018-12-24T23:45:18.253Z,28.30
2018-12-24T23:47:49.690Z,24.23
2018-12-24T23:50:21.366Z,28.03
2018-12-24T23:52:52.981Z,29.73
2018-12-24T23:55:25.417Z,27.87
2018-12-24T23:57:57.468Z,24.60
